Time;durP1;ratioP1;P1;durP2;ratioP2;P2;SDS_P1;SDS_P2;PMS_P1;PMS_P2;Temp;Humidity;BMP_temperature;BMP_pressure;BME280_temperature;BME280_humidity;BME280_pressure;Samples;Min_cycle;Max_cycle;Signal;HPM_P1;HPM_P2
2022/08/10 00:02:16;;;;;;;1.95;1.40;;;;;;;20.78;62.10;100558.35;1785474;78;20983;-73
2022/08/10 00:04:43;;;;;;;3.27;1.55;;;;;;;20.73;62.12;100556.20;1778290;79;21786;-74
2022/08/10 00:07:10;;;;;;;2.42;1.37;;;;;;;20.72;62.20;100554.54;1790678;78;21059;-73
2022/08/10 00:09:36;;;;;;;2.35;1.40;;;;;;;20.72;62.15;100555.05;1778127;78;21195;-73
2022/08/10 00:12:04;;;;;;;3.83;1.60;;;;;;;20.70;62.18;100556.58;1792664;78;21142;-73
2022/08/10 00:14:32;;;;;;;3.87;1.65;;;;;;;20.69;62.15;100546.86;1788620;78;21098;-74
2022/08/10 00:16:58;;;;;;;4.50;1.62;;;;;;;20.67;62.28;100544.05;1799356;79;21796;-74
2022/08/10 00:19:25;;;;;;;2.47;1.62;;;;;;;20.63;62.29;100538.19;1782755;78;20995;-72
2022/08/10 00:21:51;;;;;;;2.37;1.40;;;;;;;20.63;62.34;100538.70;1796047;78;21067;-72
2022/08/10 00:24:18;;;;;;;2.98;1.60;;;;;;;20.60;62.36;100532.36;1781083;78;20980;-72
2022/08/10 00:26:45;;;;;;;1.52;1.42;;;;;;;20.55;62.39;100527.02;1786469;78;21489;-74
2022/08/10 00:29:12;;;;;;;2.45;1.42;;;;;;;20.52;62.45;100532.76;1786879;78;21883;-74
2022/08/10 00:31:39;;;;;;;2.77;1.30;;;;;;;20.49;62.44;100532.30;1790280;79;20953;-74
2022/08/10 00:34:06;;;;;;;3.05;1.30;;;;;;;20.47;62.61;100533.00;1790790;78;20994;-72
2022/08/10 00:36:33;;;;;;;1.40;1.25;;;;;;;20.46;62.70;100530.83;1778382;78;20984;-73
2022/08/10 00:39:00;;;;;;;4.00;1.30;;;;;;;20.47;62.67;100530.31;1783883;78;21085;-74
2022/08/10 00:41:27;;;;;;;1.85;1.40;;;;;;;20.50;62.65;100525.92;1794606;78;21957;-72
2022/08/10 00:43:53;;;;;;;3.55;1.40;;;;;;;20.48;62.59;100535.50;1785690;78;20927;-74
2022/08/10 00:46:20;;;;;;;2.37;1.30;;;;;;;20.49;62.48;100533.65;1786601;78;21038;-73
2022/08/10 00:48:46;;;;;;;2.02;1.15;;;;;;;20.48;62.38;100522.59;1781518;78;20996;-72
2022/08/10 00:51:13;;;;;;;2.55;1.45;;;;;;;20.47;62.42;100533.00;1779016;79;20995;-72
2022/08/10 00:53:40;;;;;;;4.90;1.45;;;;;;;20.46;62.50;100525.46;1786732;79;22173;-71
2022/08/10 00:56:07;;;;;;;3.92;1.40;;;;;;;20.45;62.56;100535.84;1776827;79;21051;-72
2022/08/10 00:58:34;;;;;;;2.45;1.30;;;;;;;20.44;62.70;100531.48;1784135;78;21066;-73
2022/08/10 01:01:01;;;;;;;3.15;1.35;;;;;;;20.44;62.72;100537.37;1784847;78;20991;-73
2022/08/10 01:03:28;;;;;;;1.80;1.27;;;;;;;20.46;62.68;100544.72;1780310;78;21532;-72
2022/08/10 01:06:02;;;;;;;2.55;1.20;;;;;;;20.42;62.66;100538.03;1788038;78;22359;-73
2022/08/10 01:08:53;;;;;;;2.37;1.37;;;;;;;20.42;62.78;100540.20;1786115;78;20966;-73
2022/08/10 01:11:52;;;;;;;2.40;1.40;;;;;;;20.42;62.81;100540.20;1781715;79;21047;-72
2022/08/10 01:14:30;;;;;;;3.40;1.50;;;;;;;20.42;62.76;100546.08;1772552;79;21019;-74
2022/08/10 01:17:03;;;;;;;2.83;1.50;;;;;;;20.39;62.67;100549.14;1791920;78;21008;-73
2022/08/10 01:19:53;;;;;;;4.58;1.40;;;;;;;20.37;62.67;100541.27;1780130;78;22566;-73
2022/08/10 01:22:42;;;;;;;2.50;1.20;;;;;;;20.35;62.73;100541.94;1776857;79;21057;-73
2022/08/10 01:25:44;;;;;;;3.95;1.37;;;;;;;20.34;62.91;100540.27;1793077;78;21004;-74
2022/08/10 01:28:32;;;;;;;1.85;1.25;;;;;;;20.29;63.03;100537.31;1743924;78;21482;-73
2022/08/10 01:31:00;;;;;;;1.70;1.20;;;;;;;20.26;63.18;100540.34;1778830;78;20959;-72
2022/08/10 01:33:37;;;;;;;2.60;1.32;;;;;;;20.21;63.34;100531.51;1791630;78;21825;-73
2022/08/10 01:36:17;;;;;;;2.55;1.20;;;;;;;20.17;63.52;100536.05;1786652;78;21011;-73
2022/08/10 01:38:47;;;;;;;1.90;1.10;;;;;;;20.15;63.62;100541.60;1786647;78;21007;-73
2022/08/10 01:41:39;;;;;;;1.22;1.10;;;;;;;20.14;63.54;100537.77;1776560;78;21026;-72
2022/08/10 01:44:12;;;;;;;5.55;1.85;;;;;;;20.11;63.51;100544.84;1778731;78;20947;-73
2022/08/10 01:46:43;;;;;;;1.25;1.12;;;;;;;20.08;63.54;100545.20;1786292;79;22459;-74
2022/08/10 01:49:11;;;;;;;2.27;1.30;;;;;;;20.07;63.66;100542.17;1790395;78;21034;-72
2022/08/10 01:51:48;;;;;;;3.47;1.20;;;;;;;20.06;63.73;100552.57;1791129;78;21403;-72
2022/08/10 01:54:22;;;;;;;2.87;1.20;;;;;;;20.04;63.81;100551.41;1768254;78;21084;-73
2022/08/10 01:56:50;;;;;;;;;;;;;;;20.04;63.86;100553.27;1790240;78;21137;-72
2022/08/10 01:59:31;;;;;;;1.22;1.12;;;;;;;20.00;63.90;100552.29;1778091;78;21839;-73
2022/08/10 02:02:02;;;;;;;1.85;1.10;;;;;;;19.98;63.94;100553.48;1777573;79;21085;-72
2022/08/10 02:04:34;;;;;;;1.47;1.20;;;;;;;19.98;63.97;100552.98;1797133;78;21077;-74
2022/08/10 02:07:02;;;;;;;3.95;1.20;;;;;;;19.99;63.92;100558.67;1767982;79;21036;-73
2022/08/10 02:09:35;;;;;;;2.37;1.35;;;;;;;20.01;63.94;100551.78;1790750;78;21269;-72
2022/08/10 02:12:06;;;;;;;4.35;1.17;;;;;;;20.03;64.02;100560.47;1781241;78;21934;-73
2022/08/10 02:14:42;;;;;;;3.03;1.30;;;;;;;20.04;63.99;100559.97;1782783;78;21575;-72
2022/08/10 02:17:15;;;;;;;1.85;1.30;;;;;;;20.01;64.06;100545.91;1794631;78;20983;-73
2022/08/10 02:19:45;;;;;;;2.05;1.30;;;;;;;20.01;64.02;100540.55;1763923;79;21058;-73
2022/08/10 02:22:13;;;;;;;1.57;1.17;;;;;;;20.03;64.13;100551.09;1790913;78;21495;-73
2022/08/10 02:24:44;;;;;;;2.60;1.10;;;;;;;20.01;64.26;100549.94;1776516;78;22254;-73
2022/08/10 02:27:12;;;;;;;3.15;1.30;;;;;;;20.00;64.40;100553.63;1790196;79;20988;-73
2022/08/10 02:29:44;;;;;;;1.80;1.20;;;;;;;19.97;64.45;100551.28;1758932;79;21066;-75
2022/08/10 02:32:13;;;;;;;2.30;1.10;;;;;;;19.96;64.52;100560.34;1781375;79;21027;-72
2022/08/10 02:34:45;;;;;;;2.55;1.30;;;;;;;19.94;64.58;100558.86;1768026;78;21449;-73
2022/08/10 02:37:21;;;;;;;2.58;1.10;;;;;;;19.93;64.71;100564.73;1783739;78;21954;-73
2022/08/10 02:39:48;;;;;;;2.47;1.27;;;;;;;19.91;64.90;100563.25;1781682;79;21718;-73
2022/08/10 02:42:27;;;;;;;1.65;1.30;;;;;;;19.90;64.89;100561.58;1767368;79;20943;-72
2022/08/10 02:45:11;;;;;;;2.30;1.37;;;;;;;19.90;64.91;100565.09;1784730;78;21043;-72
2022/08/10 02:47:50;;;;;;;1.98;1.35;;;;;;;19.90;64.93;100552.20;1785643;78;20951;-73
2022/08/10 02:50:27;;;;;;;2.55;1.30;;;;;;;19.89;64.92;100559.92;1781536;79;23733;-72
2022/08/10 02:53:20;;;;;;;3.05;1.30;;;;;;;19.87;64.96;100561.91;1785205;78;21000;-72
2022/08/10 02:56:32;;;;;;;1.80;1.13;;;;;;;19.83;64.97;100558.77;1790644;78;20964;-73
2022/08/10 02:59:17;;;;;;;1.62;1.30;;;;;;;19.81;64.88;100555.44;1778887;78;21007;-73
2022/08/10 03:01:48;;;;;;;2.25;1.40;;;;;;;19.79;65.17;100552.61;1786738;78;21039;-72
2022/08/10 03:04:22;;;;;;;2.33;1.57;;;;;;;19.76;65.31;100544.40;1779711;78;21831;-73
2022/08/10 03:06:57;;;;;;;1.65;1.32;;;;;;;19.73;65.44;100541.58;1807421;78;20944;-72
2022/08/10 03:09:25;;;;;;;2.92;1.37;;;;;;;19.76;65.60;100533.67;1788506;78;21635;-73
2022/08/10 03:11:51;;;;;;;5.08;1.60;;;;;;;19.79;65.71;100527.98;1804777;78;21010;-73
2022/08/10 03:14:18;;;;;;;4.17;1.47;;;;;;;19.80;65.80;100523.45;1819798;78;20880;-76
2022/08/10 03:16:45;;;;;;;1.62;1.37;;;;;;;19.80;65.92;100520.77;1798183;78;22459;-72
2022/08/10 03:19:12;;;;;;;1.82;1.27;;;;;;;19.79;66.04;100522.63;1806306;78;21476;-72
2022/08/10 03:21:39;;;;;;;3.67;1.55;;;;;;;19.75;66.13;100523.14;1801135;78;21063;-72
2022/08/10 03:24:06;;;;;;;3.15;1.45;;;;;;;19.73;66.23;100519.30;1800199;78;21498;-73
2022/08/10 03:26:33;;;;;;;2.80;1.80;;;;;;;19.73;66.34;100513.44;1800708;78;20954;-72
2022/08/10 03:29:02;;;;;;;3.42;1.67;;;;;;;19.73;66.56;100519.30;1811436;78;21742;-72
2022/08/10 03:31:28;;;;;;;3.02;1.60;;;;;;;19.71;66.72;100519.99;1816422;78;21441;-73
2022/08/10 03:33:54;;;;;;;2.22;1.50;;;;;;;19.73;66.87;100523.32;1811844;78;21465;-72
2022/08/10 03:36:21;;;;;;;2.17;1.70;;;;;;;19.74;66.98;100522.30;1805637;78;21517;-73
2022/08/10 03:38:50;;;;;;;3.58;1.80;;;;;;;19.73;67.14;100522.81;1773525;78;21058;-73
2022/08/10 03:41:21;;;;;;;4.03;1.85;;;;;;;19.71;67.44;100519.48;1825248;77;22330;-71
2022/08/10 03:43:48;;;;;;;2.17;1.60;;;;;;;19.67;67.62;100512.80;1776929;78;20940;-73
2022/08/10 03:46:18;;;;;;;2.42;1.80;;;;;;;19.68;67.87;100509.09;1802337;78;21072;-71
2022/08/10 03:48:45;;;;;;;4.92;2.10;;;;;;;19.66;68.02;100496.89;1811247;78;21029;-72
2022/08/10 03:51:12;;;;;;;2.75;1.62;;;;;;;19.64;68.24;100498.42;1801229;77;21389;-73
2022/08/10 03:53:38;;;;;;;4.00;1.95;;;;;;;19.61;68.50;100508.67;1804086;78;22464;-72
2022/08/10 03:56:05;;;;;;;1.90;1.72;;;;;;;19.57;68.72;100512.19;1800232;78;21393;-72
2022/08/10 03:58:33;;;;;;;2.40;1.75;;;;;;;19.54;68.93;100513.86;1802391;78;20991;-72
2022/08/10 04:01:00;;;;;;;2.67;2.20;;;;;;;19.52;69.11;100523.09;1807896;78;21362;-73
2022/08/10 04:03:26;;;;;;;2.80;2.12;;;;;;;19.52;69.30;100528.45;1803232;78;21042;-72
2022/08/10 04:05:54;;;;;;;2.58;1.87;;;;;;;19.53;69.39;100536.81;1795169;78;22550;-73
2022/08/10 04:08:21;;;;;;;2.20;1.80;;;;;;;19.54;69.60;100543.33;1792838;79;21011;-73
2022/08/10 04:10:49;;;;;;;3.27;2.10;;;;;;;19.54;69.71;100541.16;1765904;79;20963;-72
2022/08/10 04:13:17;;;;;;;3.77;2.00;;;;;;;19.56;69.81;100536.48;1796033;79;20992;-73
2022/08/10 04:15:44;;;;;;;3.15;2.15;;;;;;;19.59;70.03;100536.12;1783190;79;21425;-73
2022/08/10 04:18:12;;;;;;;2.80;2.00;;;;;;;19.60;70.14;100541.33;1794486;79;21944;-73
2022/08/10 04:20:48;;;;;;;2.60;2.20;;;;;;;19.59;70.29;100534.78;1796331;79;21038;-71
2022/08/10 04:23:24;;;;;;;2.52;2.20;;;;;;;19.58;70.47;100533.95;1798279;79;21510;-71
2022/08/10 04:25:53;;;;;;;2.30;2.10;;;;;;;19.57;70.61;100532.79;1807336;78;21022;-72
2022/08/10 04:28:20;;;;;;;4.92;2.62;;;;;;;19.57;70.85;100530.11;1791394;78;21406;-73
2022/08/10 04:30:49;;;;;;;4.37;2.50;;;;;;;19.52;71.01;100528.45;1792934;79;21837;-71
2022/08/10 04:33:19;;;;;;;3.22;2.45;;;;;;;19.50;71.18;100530.48;1788785;78;20987;-71
2022/08/10 04:35:47;;;;;;;3.22;2.33;;;;;;;19.49;71.36;100532.29;1788480;79;20944;-72
2022/08/10 04:38:14;;;;;;;3.58;2.62;;;;;;;19.45;71.48;100534.50;1780287;79;21045;-73
2022/08/10 04:40:42;;;;;;;2.83;2.40;;;;;;;19.46;71.56;100532.66;1784003;79;21046;-72
2022/08/10 04:43:08;;;;;;;5.62;2.50;;;;;;;19.51;71.77;100526.78;1778272;78;21913;-72
2022/08/10 04:45:36;;;;;;;3.70;2.70;;;;;;;19.53;71.82;100529.61;1720491;80;21040;-73
2022/08/10 04:48:03;;;;;;;6.42;2.77;;;;;;;19.54;71.94;100523.74;1785722;78;21051;-73
2022/08/10 04:50:30;;;;;;;5.17;2.55;;;;;;;19.56;72.00;100539.99;1784291;78;21659;-72
2022/08/10 04:52:58;;;;;;;4.45;2.72;;;;;;;19.59;72.10;100550.38;1778763;78;21051;-72
2022/08/10 04:55:24;;;;;;;8.00;2.80;;;;;;;19.61;72.08;100555.05;1784651;78;21848;-73
2022/08/10 04:57:53;;;;;;;4.20;2.60;;;;;;;19.63;72.14;100557.05;1781319;78;21528;-75
2022/08/10 05:00:19;;;;;;;3.15;2.60;;;;;;;19.60;72.17;100559.25;1755826;79;21011;-73
2022/08/10 05:02:50;;;;;;;5.70;2.70;;;;;;;19.59;72.55;100555.73;1795862;78;20944;-74
2022/08/10 05:05:19;;;;;;;3.52;2.55;;;;;;;19.58;72.64;100566.61;1787034;78;21596;-72
2022/08/10 05:07:47;;;;;;;2.85;2.55;;;;;;;19.55;72.81;100572.30;1782554;78;21850;-74
2022/08/10 05:10:15;;;;;;;2.80;2.50;;;;;;;19.53;72.95;100564.95;1794704;78;21010;-73
2022/08/10 05:12:41;;;;;;;2.35;2.15;;;;;;;19.50;73.06;100575.52;1786178;78;21071;-74
2022/08/10 05:15:13;;;;;;;2.83;2.50;;;;;;;19.48;73.25;100569.98;1788389;78;21528;-73
2022/08/10 05:17:41;;;;;;;2.72;2.40;;;;;;;19.45;73.37;100574.68;1785984;78;21101;-73
2022/08/10 05:20:17;;;;;;;3.20;2.20;;;;;;;19.41;73.56;100570.69;1805602;79;21918;-73
2022/08/10 05:22:47;;;;;;;3.60;2.80;;;;;;;19.41;73.61;100577.39;1796788;77;21015;-73
2022/08/10 05:25:18;;;;;;;4.55;2.62;;;;;;;19.45;73.65;100582.72;1798609;78;21492;-72
2022/08/10 05:27:47;;;;;;;5.72;2.92;;;;;;;19.44;73.57;100581.05;1777725;79;20995;-75
2022/08/10 05:30:18;;;;;;;3.83;2.75;;;;;;;19.43;73.54;100582.06;1786025;79;20998;-73
2022/08/10 05:32:45;;;;;;;5.60;3.37;;;;;;;19.41;73.62;100578.73;1793272;79;21720;-73
2022/08/10 05:35:11;;;;;;;5.85;3.33;;;;;;;19.42;73.83;100579.56;1798633;77;20899;-74
2022/08/10 05:37:38;;;;;;;5.05;3.25;;;;;;;19.41;74.19;100576.56;1799279;79;21116;-73
2022/08/10 05:40:07;;;;;;;6.80;3.20;;;;;;;19.40;74.60;100579.74;1769301;79;20979;-73
2022/08/10 05:42:34;;;;;;;4.20;3.37;;;;;;;19.36;74.89;100582.42;1829086;76;21457;-74
2022/08/10 05:45:02;;;;;;;5.30;3.77;;;;;;;19.35;75.21;100587.45;1807087;77;22231;-73
2022/08/10 05:47:29;;;;;;;4.50;3.50;;;;;;;19.35;75.49;100591.47;1823668;76;20926;-73
2022/08/10 05:49:56;;;;;;;5.53;3.50;;;;;;;19.36;75.77;100586.95;1823832;76;20973;-72
2022/08/10 05:52:23;;;;;;;3.98;3.58;;;;;;;19.36;76.10;100574.38;1783240;79;20940;-73
2022/08/10 05:54:49;;;;;;;7.25;5.85;;;;;;;19.39;76.37;100579.89;1792436;78;21050;-73
2022/08/10 05:57:16;;;;;;;6.47;4.53;;;;;;;19.38;76.51;100581.73;1782989;79;21940;-75
2022/08/10 05:59:50;;;;;;;21.97;18.23;;;;;;;19.38;76.90;100575.04;1792345;79;20966;-74
2022/08/10 06:02:35;;;;;;;8.85;5.45;;;;;;;19.43;77.22;100573.19;1792217;77;20940;-74
2022/08/10 06:05:08;;;;;;;12.05;9.63;;;;;;;19.43;77.39;100561.97;1793043;77;22155;-73
2022/08/10 06:08:00;;;;;;;;;;;;;;;19.44;77.68;100556.11;1786951;79;20947;-73
2022/08/10 06:10:28;;;;;;;6.17;4.90;;;;;;;19.45;77.83;100547.06;1784591;79;21500;-75
2022/08/10 06:15:40;;;;;;;4.70;4.08;;;;;;;19.49;78.27;100535.48;1788118;77;21564;-76
2022/08/10 06:18:07;;;;;;;5.95;4.78;;;;;;;19.58;78.40;100539.81;1799170;79;21121;-75
2022/08/10 06:20:33;;;;;;;5.53;4.60;;;;;;;19.68;78.32;100537.74;1803918;79;21035;-73
2022/08/10 06:23:01;;;;;;;4.85;4.33;;;;;;;19.77;78.03;100524.63;1790513;79;21791;-74
2022/08/10 06:25:31;;;;;;;6.83;4.55;;;;;;;19.85;77.94;100523.23;1799368;79;21015;-75
2022/08/10 06:27:58;;;;;;;5.22;4.45;;;;;;;19.94;77.68;100523.50;1795656;79;20955;-75
2022/08/10 06:30:25;;;;;;;5.28;4.30;;;;;;;20.00;77.29;100532.18;1788906;79;21050;-75
2022/08/10 06:32:55;;;;;;;5.70;4.37;;;;;;;20.06;77.11;100532.46;1780471;79;20987;-75
2022/08/10 06:35:25;;;;;;;5.80;4.15;;;;;;;20.16;76.91;100537.07;1771004;79;21997;-78
2022/08/10 06:37:52;;;;;;;5.70;4.33;;;;;;;20.22;76.38;100541.73;1794465;77;21070;-76
2022/08/10 06:40:19;;;;;;;6.53;4.28;;;;;;;20.26;76.10;100545.70;1799564;77;21487;-85
2022/08/10 06:42:47;;;;;;;6.28;4.40;;;;;;;20.29;75.79;100544.86;1792768;77;20994;-74
2022/08/10 06:45:18;;;;;;;5.30;4.40;;;;;;;20.36;75.83;100547.62;1788948;79;21000;-77
2022/08/10 06:47:58;;;;;;;4.58;4.17;;;;;;;20.43;75.42;100553.14;1783012;79;21889;-76
2022/08/10 06:50:41;;;;;;;4.65;4.12;;;;;;;20.45;75.08;100550.59;1786792;79;20923;-80
2022/08/10 06:53:15;;;;;;;5.08;4.47;;;;;;;20.48;74.54;100551.59;1783270;79;20952;-75
2022/08/10 06:55:51;;;;;;;4.85;4.45;;;;;;;20.54;74.63;100553.53;1797568;78;21066;-74
2022/08/10 06:58:20;;;;;;;6.47;4.37;;;;;;;20.62;74.40;100547.77;1787254;79;20922;-74
2022/08/10 07:00:47;;;;;;;6.15;4.35;;;;;;;20.73;74.41;100543.29;1796611;79;21963;-74
2022/08/10 07:03:13;;;;;;;4.85;4.42;;;;;;;20.81;73.70;100548.58;1783800;79;21073;-75
2022/08/10 07:05:46;;;;;;;5.75;4.53;;;;;;;20.85;73.48;100549.89;1763770;78;20944;-76
2022/08/10 07:08:16;;;;;;;5.80;4.78;;;;;;;20.91;73.21;100554.51;1799745;78;21021;-75
2022/08/10 07:10:44;;;;;;;13.15;11.75;;;;;;;20.93;72.82;100554.31;1778118;79;21127;-75
2022/08/10 07:13:16;;;;;;;6.53;4.83;;;;;;;20.94;72.72;100560.01;1786808;79;22021;-75
2022/08/10 07:15:42;;;;;;;33.85;30.27;;;;;;;21.01;72.53;100559.09;1784041;79;21008;-77
2022/08/10 07:18:10;;;;;;;10.28;9.28;;;;;;;21.07;72.57;100554.34;1807794;78;20978;-73
2022/08/10 07:20:37;;;;;;;10.43;8.53;;;;;;;21.15;72.33;100569.02;1809707;77;21203;-74
2022/08/10 07:23:04;;;;;;;6.10;5.47;;;;;;;21.23;72.07;100569.92;1807856;78;21109;-74
2022/08/10 07:25:31;;;;;;;5.58;4.97;;;;;;;21.30;72.20;100572.22;1806993;78;21922;-74
2022/08/10 07:27:58;;;;;;;5.53;4.92;;;;;;;21.38;71.98;100559.52;1807976;78;20991;-74
2022/08/10 07:30:29;;;;;;;5.25;4.75;;;;;;;21.42;71.41;100565.34;1756758;81;21402;-73
2022/08/10 07:32:56;;;;;;;6.08;4.83;;;;;;;21.48;71.34;100563.77;1824876;78;20986;-73
2022/08/10 07:35:23;;;;;;;5.78;5.17;;;;;;;21.56;71.30;100569.05;1800479;78;21483;-73
2022/08/10 07:37:51;;;;;;;6.37;5.15;;;;;;;21.58;70.67;100564.30;1810759;78;21765;-73
2022/08/10 07:40:19;;;;;;;12.43;8.75;;;;;;;21.63;70.55;100574.00;1805484;78;21055;-74
2022/08/10 07:42:48;;;;;;;5.80;4.78;;;;;;;21.71;70.53;100571.17;1798406;78;21010;-72
2022/08/10 07:45:15;;;;;;;5.65;4.30;;;;;;;21.77;70.04;100574.97;1802347;78;21096;-74
2022/08/10 07:48:26;;;;;;;6.40;4.60;;;;;;;21.82;69.40;100577.42;1797996;78;20954;-72
2022/08/10 07:51:04;;;;;;;5.15;4.40;;;;;;;21.85;69.36;100569.48;1764087;81;21774;-73
2022/08/10 07:54:21;;;;;;;6.60;4.05;;;;;;;21.89;69.34;100571.58;1811458;77;20998;-72
2022/08/10 07:57:26;;;;;;;5.22;4.35;;;;;;;21.92;68.27;100566.36;1815641;78;21046;-72
2022/08/10 07:59:55;;;;;;;;;;;;;;;21.92;67.72;100567.70;1763137;81;21052;-71
2022/08/10 08:02:35;;;;;;;6.12;4.30;;;;;;;21.91;67.61;100560.66;1778023;79;20217;-73
2022/08/10 08:05:12;;;;;;;7.22;4.20;;;;;;;21.89;66.80;100559.99;1801657;77;22552;-73
2022/08/10 08:07:36;;;;;;;4.15;3.85;;;;;;;21.89;66.12;100559.99;1774273;78;21027;-73
2022/08/10 08:10:04;;;;;;;5.05;3.90;;;;;;;21.91;66.39;100558.80;1798930;79;20999;-73
2022/08/10 08:12:31;;;;;;;5.25;3.92;;;;;;;22.02;66.15;100552.08;1798053;79;21023;-73
2022/08/10 08:14:58;;;;;;;4.28;3.62;;;;;;;22.15;66.36;100549.53;1793156;79;21042;-72
2022/08/10 08:17:25;;;;;;;6.47;4.00;;;;;;;22.33;65.79;100549.59;1786548;79;21901;-73
2022/08/10 08:19:53;;;;;;;6.80;4.03;;;;;;;22.44;65.30;100560.66;1786802;79;21051;-72
2022/08/10 08:22:20;;;;;;;7.22;4.47;;;;;;;22.59;65.23;100565.14;1792116;79;21011;-71
2022/08/10 08:24:47;;;;;;;5.47;4.10;;;;;;;22.65;64.21;100564.34;1799074;79;20959;-72
2022/08/10 08:27:15;;;;;;;5.83;4.35;;;;;;;22.70;64.16;100566.77;1799840;77;20987;-73
2022/08/10 08:29:44;;;;;;;5.53;4.30;;;;;;;22.82;64.35;100561.15;1797464;79;22516;-72
2022/08/10 08:32:11;;;;;;;4.53;4.10;;;;;;;23.07;63.97;100553.98;1792715;79;20978;-73
2022/08/10 08:34:40;;;;;;;6.12;4.30;;;;;;;23.29;62.88;100556.06;1783245;78;21027;-73
2022/08/10 08:37:08;;;;;;;6.65;4.00;;;;;;;23.40;61.87;100547.40;1757571;79;21129;-72
2022/08/10 08:39:35;;;;;;;5.12;3.80;;;;;;;23.43;61.60;100549.68;1780209;79;20991;-72
2022/08/10 08:42:30;;;;;;;6.08;3.47;;;;;;;23.47;61.31;100546.91;1748733;78;21913;-72
2022/08/10 08:45:25;;;;;;;4.22;3.75;;;;;;;23.50;60.88;100542.46;1786722;79;20941;-73
2022/08/10 08:48:09;;;;;;;3.90;3.40;;;;;;;23.50;60.54;100544.33;1775001;79;21047;-73
2022/08/10 08:51:05;;;;;;;4.00;3.60;;;;;;;23.45;60.92;100547.64;1778511;78;21052;-73
2022/08/10 08:53:42;;;;;;;4.37;3.62;;;;;;;23.49;61.40;100545.36;1773959;78;21046;-72
2022/08/10 08:56:17;;;;;;;3.77;3.37;;;;;;;23.58;60.72;100554.42;1775849;78;21808;-72
2022/08/10 08:58:57;;;;;;;4.78;3.67;;;;;;;23.65;60.73;100543.69;1779254;79;21487;-73
2022/08/10 09:01:39;;;;;;;4.55;3.47;;;;;;;23.86;60.00;100548.93;1773823;78;20999;-73
2022/08/10 09:04:53;;;;;;;3.33;3.00;;;;;;;23.96;58.12;100545.83;1799578;78;21039;-72
2022/08/10 09:07:44;;;;;;;3.90;3.15;;;;;;;24.10;58.10;100552.06;1774260;79;21549;-72
2022/08/10 09:10:22;;;;;;;3.12;2.83;;;;;;;24.27;57.32;100555.52;1795829;78;21858;-73
2022/08/10 09:13:01;;;;;;;6.00;3.27;;;;;;;24.37;56.96;100553.78;1781981;79;20960;-72
2022/08/10 09:15:55;;;;;;;5.37;2.72;;;;;;;24.47;56.39;100562.30;1772127;79;21347;-73
2022/08/10 09:18:42;;;;;;;3.55;3.17;;;;;;;24.45;56.22;100557.62;1707968;82;27069;-72
2022/08/10 09:21:20;;;;;;;3.70;3.05;;;;;;;24.53;55.66;100562.00;1799562;79;21374;-72
2022/08/10 09:24:01;;;;;;;3.62;3.05;;;;;;;24.59;55.39;100558.45;1774002;79;22530;-72
2022/08/10 09:26:48;;;;;;;3.75;2.83;;;;;;;24.58;53.67;100560.84;1776155;79;21027;-73
2022/08/10 09:29:20;;;;;;;4.65;3.42;;;;;;;24.58;54.50;100550.55;1787885;78;20993;-72
2022/08/10 09:31:50;;;;;;;3.77;3.08;;;;;;;24.64;54.78;100547.86;1782402;78;21169;-72
2022/08/10 09:34:39;;;;;;;3.00;2.70;;;;;;;24.76;55.09;100547.52;1785118;79;20988;-73
2022/08/10 09:37:19;;;;;;;3.08;2.27;;;;;;;24.89;54.35;100536.38;1786507;78;21877;-72
2022/08/10 09:39:58;;;;;;;3.00;2.70;;;;;;;25.02;53.34;100532.34;1773924;79;20967;-71
2022/08/10 09:42:56;;;;;;;4.12;2.50;;;;;;;25.08;52.17;100530.94;1789234;78;21027;-72
2022/08/10 09:45:34;;;;;;;3.85;2.33;;;;;;;25.09;52.75;100529.93;1771229;78;21047;-73
2022/08/10 09:48:28;;;;;;;3.05;2.10;;;;;;;25.36;53.10;100523.88;1780796;78;20999;-73
2022/08/10 09:51:21;;;;;;;;;;;;;;;25.64;51.48;100532.99;1763777;79;21851;-73
2022/08/10 09:54:04;;;;;;;2.98;2.12;;;;;;;25.75;50.09;100523.39;1762916;78;20216;-73
2022/08/10 09:56:37;;;;;;;4.10;2.65;;;;;;;25.72;49.51;100518.42;1784548;79;21035;-73
2022/08/10 09:59:14;;;;;;;4.20;2.40;;;;;;;25.63;51.16;100521.05;1791896;78;21032;-72
2022/08/10 10:02:01;;;;;;;3.62;2.30;;;;;;;25.59;50.42;100519.30;1784809;78;21082;-73
2022/08/10 10:05:03;;;;;;;3.55;2.15;;;;;;;25.60;50.21;100517.42;1759343;80;21771;-72
2022/08/10 10:07:30;;;;;;;2.87;2.15;;;;;;;25.60;50.66;100520.96;1818098;76;20947;-73
2022/08/10 10:10:13;;;;;;;7.58;2.10;;;;;;;25.50;49.78;100517.07;1802240;78;20951;-72
2022/08/10 10:12:45;;;;;;;2.60;2.30;;;;;;;25.46;50.13;100511.23;1789665;78;21448;-73
2022/08/10 10:15:34;;;;;;;2.20;2.00;;;;;;;25.51;50.00;100506.55;1795062;78;21025;-72
2022/08/10 10:18:18;;;;;;;4.05;2.30;;;;;;;25.53;49.52;100512.57;1749427;81;21827;-71
2022/08/10 10:21:09;;;;;;;2.70;2.40;;;;;;;25.47;49.90;100503.95;1765581;78;21088;-73
2022/08/10 10:24:14;;;;;;;2.70;2.40;;;;;;;25.35;50.06;100507.34;1744787;79;20986;-73
2022/08/10 10:26:53;;;;;;;4.03;2.30;;;;;;;25.44;50.76;100503.05;1789090;78;21122;-73
2022/08/10 10:29:34;;;;;;;3.65;2.25;;;;;;;25.49;49.86;100502.72;1768122;79;21180;-72
2022/08/10 10:32:37;;;;;;;2.70;2.10;;;;;;;25.35;50.41;100504.64;1791899;78;22553;-73
2022/08/10 10:35:34;;;;;;;2.60;2.40;;;;;;;25.35;50.29;100502.46;1748892;80;21013;-73
2022/08/10 10:38:01;;;;;;;3.55;2.52;;;;;;;25.34;50.67;100511.63;1802477;78;21013;-73
2022/08/10 10:40:42;;;;;;;4.70;2.62;;;;;;;25.30;50.81;100500.42;1791143;78;21426;-74
2022/08/10 10:43:45;;;;;;;2.92;2.58;;;;;;;25.36;51.33;100501.41;1761935;79;21396;-72
2022/08/10 10:46:23;;;;;;;3.35;2.77;;;;;;;25.59;51.75;100503.08;1790806;78;21837;-73
2022/08/10 10:49:13;;;;;;;3.20;2.65;;;;;;;25.84;50.50;100504.50;1775200;79;21333;-73
2022/08/10 10:51:50;;;;;;;2.95;2.65;;;;;;;25.96;49.80;100494.64;1788653;78;20935;-73
2022/08/10 10:54:29;;;;;;;3.30;2.65;;;;;;;26.22;49.97;100496.29;1775998;79;21419;-72
2022/08/10 10:57:25;;;;;;;3.27;2.62;;;;;;;26.38;49.07;100492.77;1787529;78;21468;-72
2022/08/10 11:00:07;;;;;;;2.90;2.70;;;;;;;26.47;49.17;100490.08;1754383;81;21868;-72
2022/08/10 11:03:04;;;;;;;3.95;2.90;;;;;;;26.48;48.77;100494.44;1796701;78;21055;-73
2022/08/10 11:05:56;;;;;;;2.90;2.60;;;;;;;26.42;48.64;100493.44;1759087;81;21048;-73
2022/08/10 11:08:25;;;;;;;4.28;2.62;;;;;;;26.23;48.53;100498.47;1809366;76;20995;-73
2022/08/10 11:10:59;;;;;;;2.87;2.58;;;;;;;26.03;48.33;100498.63;1793379;78;21042;-74
2022/08/10 11:13:50;;;;;;;3.40;3.08;;;;;;;25.82;49.15;100495.77;1790150;78;21903;-73
2022/08/10 11:16:47;;;;;;;4.05;2.67;;;;;;;25.70;49.58;100497.52;1802880;78;21087;-73
2022/08/10 11:19:36;;;;;;;4.45;2.90;;;;;;;25.62;50.22;100490.46;1803393;77;21061;-73
2022/08/10 11:22:17;;;;;;;3.45;3.00;;;;;;;25.54;49.77;100494.77;1803964;78;20986;-73
2022/08/10 11:25:14;;;;;;;4.10;3.17;;;;;;;25.33;50.35;100489.16;1804149;77;20975;-72
2022/08/10 11:27:57;;;;;;;3.30;3.00;;;;;;;25.23;51.01;100489.32;1793237;78;21845;-73
2022/08/10 11:30:31;;;;;;;;;;;;;;;25.16;51.68;100486.64;1796263;78;21409;-73
2022/08/10 11:33:15;;;;;;;4.80;3.25;;;;;;;25.09;52.50;100489.88;1765578;80;20166;-72
2022/08/10 11:36:02;;;;;;;6.47;3.65;;;;;;;25.04;52.53;100494.59;1789889;78;21480;-72
2022/08/10 11:38:43;;;;;;;5.58;3.15;;;;;;;25.02;52.92;100487.75;1805949;77;21054;-73
2022/08/10 11:41:24;;;;;;;3.70;3.22;;;;;;;24.90;53.57;100491.61;1796824;78;22537;-73
2022/08/10 11:44:14;;;;;;;3.83;3.40;;;;;;;24.76;53.71;100488.61;1745131;79;20997;-74
2022/08/10 11:46:46;;;;;;;3.90;3.50;;;;;;;24.67;54.49;100484.48;1788934;78;21046;-72
2022/08/10 11:49:34;;;;;;;6.00;3.62;;;;;;;24.69;54.86;100481.04;1779994;78;21025;-73
2022/08/10 11:52:09;;;;;;;6.70;3.40;;;;;;;24.70;54.42;100473.24;1750090;80;21444;-73
2022/08/10 11:54:45;;;;;;;3.80;3.10;;;;;;;24.66;54.56;100475.55;1751095;81;21851;-73
2022/08/10 11:57:12;;;;;;;4.65;3.40;;;;;;;24.71;55.00;100469.53;1803472;78;21512;-74
2022/08/10 11:59:57;;;;;;;6.72;3.80;;;;;;;24.80;54.86;100466.88;1784869;78;21411;-73
2022/08/10 12:02:32;;;;;;;4.03;3.20;;;;;;;24.90;54.80;100475.88;1794151;78;21406;-72
2022/08/10 12:05:19;;;;;;;3.83;3.22;;;;;;;24.99;54.13;100484.06;1735054;81;20968;-72